sensor_id;sensor_type;location;lat;lon;timestamp;pressure;altitude;pressure_sealevel;temperature;humidity
30081;BME280;16902;50.816;12.828;2022-07-05T00:02:53;98083.50;;;14.99;100.00
30081;BME280;16902;50.816;12.828;2022-07-05T00:07:56;98089.75;;;14.91;100.00
30081;BME280;16902;50.816;12.828;2022-07-05T00:12:58;98089.34;;;14.81;100.00
30081;BME280;16902;50.816;12.828;2022-07-05T00:18:00;98082.03;;;14.70;100.00
30081;BME280;16902;50.816;12.828;2022-07-05T00:23:01;98088.06;;;14.57;100.00
30081;BME280;16902;50.816;12.828;2022-07-05T00:28:03;98077.53;;;14.50;100.00
30081;BME280;16902;50.816;12.828;2022-07-05T00:33:06;98080.69;;;14.39;100.00
30081;BME280;16902;50.816;12.828;2022-07-05T00:38:08;98077.84;;;14.27;100.00
30081;BME280;16902;50.816;12.828;2022-07-05T00:43:10;98079.19;;;14.17;100.00
30081;BME280;16902;50.816;12.828;2022-07-05T00:48:11;98087.81;;;14.04;100.00
30081;BME280;16902;50.816;12.828;2022-07-05T00:53:13;98073.25;;;13.95;100.00
30081;BME280;16902;50.816;12.828;2022-07-05T00:58:15;98073.81;;;13.90;100.00
30081;BME280;16902;50.816;12.828;2022-07-05T01:03:17;98068.72;;;13.75;100.00
30081;BME280;16902;50.816;12.828;2022-07-05T01:08:19;98060.16;;;13.60;100.00
30081;BME280;16902;50.816;12.828;2022-07-05T01:13:22;98064.28;;;13.48;100.00
30081;BME280;16902;50.816;12.828;2022-07-05T01:18:25;98061.84;;;13.40;100.00
30081;BME280;16902;50.816;12.828;2022-07-05T01:23:31;98057.75;;;13.30;100.00
30081;BME280;16902;50.816;12.828;2022-07-05T01:28:33;98057.13;;;13.07;100.00
30081;BME280;16902;50.816;12.828;2022-07-05T01:33:34;98058.84;;;13.00;100.00
30081;BME280;16902;50.816;12.828;2022-07-05T01:38:36;98068.19;;;12.88;100.00
30081;BME280;16902;50.816;12.828;2022-07-05T01:43:39;98056.31;;;12.85;100.00
30081;BME280;16902;50.816;12.828;2022-07-05T01:48:41;98061.84;;;12.75;100.00
30081;BME280;16902;50.816;12.828;2022-07-05T01:53:44;98053.13;;;12.68;100.00
30081;BME280;16902;50.816;12.828;2022-07-05T01:58:47;98055.34;;;12.50;100.00
30081;BME280;16902;50.816;12.828;2022-07-05T02:03:50;98062.19;;;12.51;100.00
30081;BME280;16902;50.816;12.828;2022-07-05T02:09:01;98059.88;;;12.41;100.00
30081;BME280;16902;50.816;12.828;2022-07-05T02:14:03;98049.66;;;12.25;100.00
30081;BME280;16902;50.816;12.828;2022-07-05T02:19:09;98056.22;;;12.21;100.00
30081;BME280;16902;50.816;12.828;2022-07-05T02:24:15;98052.91;;;12.12;100.00
30081;BME280;16902;50.816;12.828;2022-07-05T02:29:25;98054.53;;;11.98;100.00
30081;BME280;16902;50.816;12.828;2022-07-05T02:34:29;98059.94;;;11.97;100.00
30081;BME280;16902;50.816;12.828;2022-07-05T02:39:31;98063.28;;;11.91;100.00
30081;BME280;16902;50.816;12.828;2022-07-05T02:44:34;98061.72;;;11.81;100.00
30081;BME280;16902;50.816;12.828;2022-07-05T02:49:37;98063.78;;;11.71;100.00
30081;BME280;16902;50.816;12.828;2022-07-05T02:54:40;98068.88;;;11.65;100.00
30081;BME280;16902;50.816;12.828;2022-07-05T02:59:44;98070.88;;;11.63;100.00
30081;BME280;16902;50.816;12.828;2022-07-05T03:04:47;98066.72;;;11.53;100.00
30081;BME280;16902;50.816;12.828;2022-07-05T03:09:49;98071.38;;;11.43;100.00
30081;BME280;16902;50.816;12.828;2022-07-05T03:14:51;98072.09;;;11.37;100.00
30081;BME280;16902;50.816;12.828;2022-07-05T03:19:55;98078.19;;;11.29;100.00
30081;BME280;16902;50.816;12.828;2022-07-05T03:24:59;98086.19;;;11.28;100.00
30081;BME280;16902;50.816;12.828;2022-07-05T03:30:04;98087.19;;;11.27;100.00
30081;BME280;16902;50.816;12.828;2022-07-05T03:35:09;98091.13;;;11.23;100.00
30081;BME280;16902;50.816;12.828;2022-07-05T03:40:11;98095.16;;;11.25;100.00
30081;BME280;16902;50.816;12.828;2022-07-05T03:45:14;98095.69;;;11.21;100.00
30081;BME280;16902;50.816;12.828;2022-07-05T03:50:17;98102.53;;;11.22;100.00
30081;BME280;16902;50.816;12.828;2022-07-05T03:55:19;98107.63;;;11.15;100.00
30081;BME280;16902;50.816;12.828;2022-07-05T04:00:21;98113.31;;;11.19;100.00
30081;BME280;16902;50.816;12.828;2022-07-05T04:05:32;98120.41;;;11.25;100.00
30081;BME280;16902;50.816;12.828;2022-07-05T04:10:34;98128.03;;;11.26;100.00
30081;BME280;16902;50.816;12.828;2022-07-05T04:15:37;98128.19;;;11.33;100.00
30081;BME280;16902;50.816;12.828;2022-07-05T04:20:40;98117.44;;;11.51;100.00
30081;BME280;16902;50.816;12.828;2022-07-05T04:25:44;98127.00;;;11.73;100.00
30081;BME280;16902;50.816;12.828;2022-07-05T04:31:02;98133.88;;;11.89;100.00
30081;BME280;16902;50.816;12.828;2022-07-05T04:36:08;98133.91;;;12.19;100.00
30081;BME280;16902;50.816;12.828;2022-07-05T04:41:10;98140.25;;;12.60;100.00
30081;BME280;16902;50.816;12.828;2022-07-05T04:46:13;98144.13;;;13.01;100.00
30081;BME280;16902;50.816;12.828;2022-07-05T04:51:17;98142.63;;;13.13;100.00
30081;BME280;16902;50.816;12.828;2022-07-05T04:56:21;98138.66;;;13.17;100.00
30081;BME280;16902;50.816;12.828;2022-07-05T05:01:23;98146.66;;;13.30;100.00
30081;BME280;16902;50.816;12.828;2022-07-05T05:06:25;98153.88;;;13.50;100.00
30081;BME280;16902;50.816;12.828;2022-07-05T05:11:26;98151.66;;;13.75;100.00
30081;BME280;16902;50.816;12.828;2022-07-05T05:16:28;98160.69;;;14.00;100.00
30081;BME280;16902;50.816;12.828;2022-07-05T05:21:30;98159.19;;;14.19;100.00
30081;BME280;16902;50.816;12.828;2022-07-05T05:26:32;98151.84;;;14.36;100.00
30081;BME280;16902;50.816;12.828;2022-07-05T05:31:34;98159.44;;;14.65;100.00
30081;BME280;16902;50.816;12.828;2022-07-05T05:36:36;98164.19;;;14.90;100.00
30081;BME280;16902;50.816;12.828;2022-07-05T05:41:38;98160.38;;;15.06;100.00
30081;BME280;16902;50.816;12.828;2022-07-05T05:46:40;98169.31;;;15.38;100.00
30081;BME280;16902;50.816;12.828;2022-07-05T05:51:42;98173.81;;;15.64;100.00
30081;BME280;16902;50.816;12.828;2022-07-05T05:56:44;98172.16;;;16.09;100.00
30081;BME280;16902;50.816;12.828;2022-07-05T06:01:46;98185.03;;;16.37;100.00
30081;BME280;16902;50.816;12.828;2022-07-05T06:06:48;98184.97;;;16.57;100.00
30081;BME280;16902;50.816;12.828;2022-07-05T06:11:50;98184.13;;;16.77;100.00
30081;BME280;16902;50.816;12.828;2022-07-05T06:16:52;98186.75;;;17.15;100.00
30081;BME280;16902;50.816;12.828;2022-07-05T06:21:54;98189.53;;;17.58;100.00
30081;BME280;16902;50.816;12.828;2022-07-05T06:27:00;98189.53;;;17.90;100.00
30081;BME280;16902;50.816;12.828;2022-07-05T06:32:02;98194.41;;;18.30;100.00
30081;BME280;16902;50.816;12.828;2022-07-05T06:37:05;98190.75;;;18.49;100.00
30081;BME280;16902;50.816;12.828;2022-07-05T06:42:07;98197.28;;;18.28;100.00
30081;BME280;16902;50.816;12.828;2022-07-05T06:47:09;98194.56;;;18.35;100.00
30081;BME280;16902;50.816;12.828;2022-07-05T06:52:11;98188.34;;;18.47;100.00
30081;BME280;16902;50.816;12.828;2022-07-05T06:57:13;98183.13;;;18.59;100.00
30081;BME280;16902;50.816;12.828;2022-07-05T07:02:32;98184.81;;;18.90;100.00
30081;BME280;16902;50.816;12.828;2022-07-05T07:07:35;98178.47;;;19.10;100.00
30081;BME280;16902;50.816;12.828;2022-07-05T07:12:57;98181.56;;;19.48;100.00
30081;BME280;16902;50.816;12.828;2022-07-05T07:17:59;98189.25;;;19.68;100.00
30081;BME280;16902;50.816;12.828;2022-07-05T07:23:01;98189.25;;;19.80;100.00
30081;BME280;16902;50.816;12.828;2022-07-05T07:28:03;98188.44;;;19.91;100.00
30081;BME280;16902;50.816;12.828;2022-07-05T07:33:06;98197.66;;;19.89;100.00
30081;BME280;16902;50.816;12.828;2022-07-05T07:38:23;98185.81;;;20.03;100.00
30081;BME280;16902;50.816;12.828;2022-07-05T07:43:26;98184.97;;;20.38;100.00
30081;BME280;16902;50.816;12.828;2022-07-05T07:48:28;98189.66;;;20.71;100.00
30081;BME280;16902;50.816;12.828;2022-07-05T07:53:30;98192.47;;;20.93;100.00
30081;BME280;16902;50.816;12.828;2022-07-05T07:58:32;98188.84;;;21.11;100.00
30081;BME280;16902;50.816;12.828;2022-07-05T08:03:34;98189.44;;;21.29;100.00
30081;BME280;16902;50.816;12.828;2022-07-05T08:08:41;98190.78;;;21.15;100.00
30081;BME280;16902;50.816;12.828;2022-07-05T08:13:44;98191.84;;;21.43;100.00
30081;BME280;16902;50.816;12.828;2022-07-05T08:18:46;98192.88;;;21.59;100.00
30081;BME280;16902;50.816;12.828;2022-07-05T08:24:08;98193.50;;;21.99;100.00
30081;BME280;16902;50.816;12.828;2022-07-05T08:29:12;98193.19;;;22.29;100.00
30081;BME280;16902;50.816;12.828;2022-07-05T08:34:23;98191.50;;;22.06;100.00
30081;BME280;16902;50.816;12.828;2022-07-05T08:39:27;98189.25;;;22.32;100.00
30081;BME280;16902;50.816;12.828;2022-07-05T08:44:33;98184.19;;;22.52;100.00
30081;BME280;16902;50.816;12.828;2022-07-05T08:49:38;98186.50;;;22.88;100.00
30081;BME280;16902;50.816;12.828;2022-07-05T08:54:42;98191.09;;;23.46;98.92
30081;BME280;16902;50.816;12.828;2022-07-05T08:59:45;98184.47;;;23.76;92.03
30081;BME280;16902;50.816;12.828;2022-07-05T09:04:49;98186.03;;;24.09;95.28
30081;BME280;16902;50.816;12.828;2022-07-05T09:09:52;98188.44;;;24.16;82.14
30081;BME280;16902;50.816;12.828;2022-07-05T09:14:55;98180.09;;;24.02;85.28
30081;BME280;16902;50.816;12.828;2022-07-05T09:20:12;98185.28;;;24.19;85.92
30081;BME280;16902;50.816;12.828;2022-07-05T09:35:36;98184.88;;;25.05;79.40
30081;BME280;16902;50.816;12.828;2022-07-05T09:40:49;98185.50;;;24.59;80.86
30081;BME280;16902;50.816;12.828;2022-07-05T09:51:10;98179.84;;;25.19;81.07
30081;BME280;16902;50.816;12.828;2022-07-05T09:56:46;98172.84;;;24.34;80.74
30081;BME280;16902;50.816;12.828;2022-07-05T10:01:49;98172.75;;;24.61;80.99
30081;BME280;16902;50.816;12.828;2022-07-05T10:06:51;98178.31;;;24.60;77.46
30081;BME280;16902;50.816;12.828;2022-07-05T10:11:53;98176.81;;;24.84;78.29
30081;BME280;16902;50.816;12.828;2022-07-05T10:17:04;98187.34;;;25.32;75.43
30081;BME280;16902;50.816;12.828;2022-07-05T10:22:08;98176.25;;;24.20;79.75
30081;BME280;16902;50.816;12.828;2022-07-05T10:27:20;98177.22;;;24.51;81.21
30081;BME280;16902;50.816;12.828;2022-07-05T10:32:23;98164.97;;;25.63;79.40
30081;BME280;16902;50.816;12.828;2022-07-05T10:37:27;98178.06;;;26.86;69.10
30081;BME280;16902;50.816;12.828;2022-07-05T10:42:36;98180.41;;;26.92;68.98
30081;BME280;16902;50.816;12.828;2022-07-05T10:47:39;98185.84;;;27.66;62.74
30081;BME280;16902;50.816;12.828;2022-07-05T10:53:01;98179.59;;;26.22;63.52
30081;BME280;16902;50.816;12.828;2022-07-05T10:58:20;98179.09;;;25.69;64.29
30081;BME280;16902;50.816;12.828;2022-07-05T11:03:35;98181.81;;;26.85;59.20
30081;BME280;16902;50.816;12.828;2022-07-05T11:14:03;98180.72;;;28.76;53.83
30081;BME280;16902;50.816;12.828;2022-07-05T11:19:09;98185.94;;;31.99;46.03
30081;BME280;16902;50.816;12.828;2022-07-05T11:24:26;98186.38;;;34.49;38.29
30081;BME280;16902;50.816;12.828;2022-07-05T11:29:50;98185.00;;;35.35;36.04
30081;BME280;16902;50.816;12.828;2022-07-05T11:34:54;98191.19;;;35.90;34.88
30081;BME280;16902;50.816;12.828;2022-07-05T11:45:12;98181.28;;;35.61;34.14
30081;BME280;16902;50.816;12.828;2022-07-05T11:50:14;98187.19;;;37.34;31.96
30081;BME280;16902;50.816;12.828;2022-07-05T11:55:17;98182.78;;;37.29;33.50
30081;BME280;16902;50.816;12.828;2022-07-05T12:05:31;98165.06;;;37.20;32.32
30081;BME280;16902;50.816;12.828;2022-07-05T12:10:36;98163.59;;;38.77;28.96
30081;BME280;16902;50.816;12.828;2022-07-05T12:16:11;98171.03;;;39.35;29.50
30081;BME280;16902;50.816;12.828;2022-07-05T12:21:14;98157.91;;;36.26;29.84
30081;BME280;16902;50.816;12.828;2022-07-05T12:26:20;98158.31;;;38.84;31.51
30081;BME280;16902;50.816;12.828;2022-07-05T12:31:24;98163.53;;;40.39;26.40
30081;BME280;16902;50.816;12.828;2022-07-05T12:36:26;98151.34;;;36.76;29.85
30081;BME280;16902;50.816;12.828;2022-07-05T12:41:29;98157.16;;;40.31;27.41
30081;BME280;16902;50.816;12.828;2022-07-05T12:46:35;98157.97;;;37.03;29.34
30081;BME280;16902;50.816;12.828;2022-07-05T12:51:45;98156.59;;;38.95;27.89
30081;BME280;16902;50.816;12.828;2022-07-05T12:56:49;98149.66;;;37.96;29.09
30081;BME280;16902;50.816;12.828;2022-07-05T13:02:36;98141.63;;;36.01;31.09
30081;BME280;16902;50.816;12.828;2022-07-05T13:07:43;98139.50;;;35.49;32.83
30081;BME280;16902;50.816;12.828;2022-07-05T13:12:46;98132.53;;;38.62;28.75
30081;BME280;16902;50.816;12.828;2022-07-05T13:17:48;98145.88;;;41.53;26.75
30081;BME280;16902;50.816;12.828;2022-07-05T13:22:51;98136.91;;;43.36;25.87
30081;BME280;16902;50.816;12.828;2022-07-05T13:27:53;98136.03;;;44.96;24.14
30081;BME280;16902;50.816;12.828;2022-07-05T13:32:55;98135.09;;;45.31;23.78
30081;BME280;16902;50.816;12.828;2022-07-05T13:37:57;98127.56;;;41.54;24.74
30081;BME280;16902;50.816;12.828;2022-07-05T13:42:58;98137.69;;;44.79;23.83
30081;BME280;16902;50.816;12.828;2022-07-05T13:48:00;98148.41;;;47.12;22.02
30081;BME280;16902;50.816;12.828;2022-07-05T13:53:02;98134.19;;;41.94;24.31
30081;BME280;16902;50.816;12.828;2022-07-05T13:58:04;98119.91;;;40.69;24.33
30081;BME280;16902;50.816;12.828;2022-07-05T14:03:06;98118.66;;;37.69;28.45
30081;BME280;16902;50.816;12.828;2022-07-05T14:08:08;98104.63;;;34.73;30.50
30081;BME280;16902;50.816;12.828;2022-07-05T14:13:10;98112.97;;;38.05;29.33
30081;BME280;16902;50.816;12.828;2022-07-05T14:18:17;98113.50;;;38.11;27.52
30081;BME280;16902;50.816;12.828;2022-07-05T14:23:20;98112.09;;;38.01;27.96
30081;BME280;16902;50.816;12.828;2022-07-05T14:28:22;98102.91;;;40.83;25.69
30081;BME280;16902;50.816;12.828;2022-07-05T14:33:24;98104.44;;;39.55;26.31
30081;BME280;16902;50.816;12.828;2022-07-05T14:38:26;98090.59;;;38.12;27.94
30081;BME280;16902;50.816;12.828;2022-07-05T14:43:32;98092.66;;;34.74;30.85
30081;BME280;16902;50.816;12.828;2022-07-05T14:48:34;98079.22;;;35.07;31.91
30081;BME280;16902;50.816;12.828;2022-07-05T14:53:36;98070.44;;;32.89;33.32
30081;BME280;16902;50.816;12.828;2022-07-05T14:58:38;98079.59;;;38.95;28.08
30081;BME280;16902;50.816;12.828;2022-07-05T15:03:39;98069.16;;;35.08;30.87
30081;BME280;16902;50.816;12.828;2022-07-05T15:08:42;98067.03;;;35.13;31.46
30081;BME280;16902;50.816;12.828;2022-07-05T15:13:43;98073.66;;;32.34;33.67
30081;BME280;16902;50.816;12.828;2022-07-05T15:18:45;98066.69;;;32.16;36.09
30081;BME280;16902;50.816;12.828;2022-07-05T15:23:47;98074.81;;;37.54;29.81
30081;BME280;16902;50.816;12.828;2022-07-05T15:29:09;98087.84;;;42.19;25.68
30081;BME280;16902;50.816;12.828;2022-07-05T15:34:12;98065.38;;;36.40;28.05
30081;BME280;16902;50.816;12.828;2022-07-05T15:39:14;98057.09;;;31.61;34.21
30081;BME280;16902;50.816;12.828;2022-07-05T15:44:17;98054.88;;;31.94;35.17
30081;BME280;16902;50.816;12.828;2022-07-05T15:49:18;98060.56;;;35.06;31.27
30081;BME280;16902;50.816;12.828;2022-07-05T15:54:20;98051.91;;;36.96;28.72
30081;BME280;16902;50.816;12.828;2022-07-05T15:59:23;98040.47;;;34.73;29.95
30081;BME280;16902;50.816;12.828;2022-07-05T16:04:25;98036.56;;;34.41;32.62
30081;BME280;16902;50.816;12.828;2022-07-05T16:09:30;98035.59;;;31.70;36.05
30081;BME280;16902;50.816;12.828;2022-07-05T16:14:32;98019.25;;;29.22;37.40
30081;BME280;16902;50.816;12.828;2022-07-05T16:19:35;98026.69;;;28.35;40.21
30081;BME280;16902;50.816;12.828;2022-07-05T16:24:37;98025.03;;;27.73;41.73
30081;BME280;16902;50.816;12.828;2022-07-05T16:29:39;98026.59;;;27.98;42.28
30081;BME280;16902;50.816;12.828;2022-07-05T16:34:40;98032.38;;;27.57;43.15
30081;BME280;16902;50.816;12.828;2022-07-05T16:39:42;98029.81;;;27.47;43.07
30081;BME280;16902;50.816;12.828;2022-07-05T16:44:45;98022.34;;;26.80;42.93
30081;BME280;16902;50.816;12.828;2022-07-05T16:49:46;98016.91;;;25.86;46.62
30081;BME280;16902;50.816;12.828;2022-07-05T16:54:48;98020.41;;;25.72;46.89
30081;BME280;16902;50.816;12.828;2022-07-05T16:59:50;98018.53;;;25.87;47.34
30081;BME280;16902;50.816;12.828;2022-07-05T17:04:52;98027.44;;;25.32;46.54
30081;BME280;16902;50.816;12.828;2022-07-05T17:09:54;98023.16;;;24.95;48.21
30081;BME280;16902;50.816;12.828;2022-07-05T17:14:57;98017.00;;;24.84;50.41
30081;BME280;16902;50.816;12.828;2022-07-05T17:19:59;98023.97;;;25.06;49.22
30081;BME280;16902;50.816;12.828;2022-07-05T17:25:01;98023.97;;;25.31;50.20
30081;BME280;16902;50.816;12.828;2022-07-05T17:30:03;98012.75;;;24.88;50.59
30081;BME280;16902;50.816;12.828;2022-07-05T17:35:06;98014.34;;;24.59;52.72
30081;BME280;16902;50.816;12.828;2022-07-05T17:40:08;98019.06;;;24.42;56.23
30081;BME280;16902;50.816;12.828;2022-07-05T17:45:10;98027.41;;;23.93;58.76
30081;BME280;16902;50.816;12.828;2022-07-05T17:50:12;98026.47;;;23.67;57.12
30081;BME280;16902;50.816;12.828;2022-07-05T17:55:34;98031.22;;;23.59;60.27
30081;BME280;16902;50.816;12.828;2022-07-05T18:00:36;98038.22;;;23.39;62.60
30081;BME280;16902;50.816;12.828;2022-07-05T18:05:38;98043.84;;;23.10;61.73
30081;BME280;16902;50.816;12.828;2022-07-05T18:10:41;98038.69;;;22.93;62.82
30081;BME280;16902;50.816;12.828;2022-07-05T18:15:43;98043.03;;;22.77;68.28
30081;BME280;16902;50.816;12.828;2022-07-05T18:20:45;98042.59;;;22.58;67.91
30081;BME280;16902;50.816;12.828;2022-07-05T18:30:48;98047.91;;;22.37;70.98
30081;BME280;16902;50.816;12.828;2022-07-05T18:35:50;98051.19;;;22.22;73.82
30081;BME280;16902;50.816;12.828;2022-07-05T18:40:52;98049.13;;;22.07;75.45
30081;BME280;16902;50.816;12.828;2022-07-05T18:45:54;98061.38;;;21.91;78.36
30081;BME280;16902;50.816;12.828;2022-07-05T18:50:55;98062.94;;;21.70;83.42
30081;BME280;16902;50.816;12.828;2022-07-05T18:55:57;98070.34;;;21.68;81.22
30081;BME280;16902;50.816;12.828;2022-07-05T19:01:20;98058.00;;;21.57;85.27
30081;BME280;16902;50.816;12.828;2022-07-05T19:06:26;98063.63;;;21.44;88.95
30081;BME280;16902;50.816;12.828;2022-07-05T19:11:46;98070.53;;;21.28;92.16
30081;BME280;16902;50.816;12.828;2022-07-05T19:17:07;98072.59;;;21.09;95.93
30081;BME280;16902;50.816;12.828;2022-07-05T19:22:09;98076.00;;;20.93;100.00
30081;BME280;16902;50.816;12.828;2022-07-05T19:27:13;98083.56;;;20.84;99.56
30081;BME280;16902;50.816;12.828;2022-07-05T19:32:15;98095.31;;;20.76;100.00
30081;BME280;16902;50.816;12.828;2022-07-05T19:37:17;98103.72;;;20.73;100.00
30081;BME280;16902;50.816;12.828;2022-07-05T19:42:19;98121.81;;;20.65;100.00
30081;BME280;16902;50.816;12.828;2022-07-05T19:47:21;98121.69;;;20.60;100.00
30081;BME280;16902;50.816;12.828;2022-07-05T19:52:23;98124.59;;;20.46;100.00
30081;BME280;16902;50.816;12.828;2022-07-05T19:57:25;98132.19;;;20.43;100.00
30081;BME280;16902;50.816;12.828;2022-07-05T20:02:27;98140.72;;;20.33;100.00
30081;BME280;16902;50.816;12.828;2022-07-05T20:07:29;98150.84;;;20.24;100.00
30081;BME280;16902;50.816;12.828;2022-07-05T20:12:30;98154.19;;;20.20;100.00
30081;BME280;16902;50.816;12.828;2022-07-05T20:17:32;98150.97;;;20.06;100.00
30081;BME280;16902;50.816;12.828;2022-07-05T20:22:34;98135.25;;;19.88;100.00
30081;BME280;16902;50.816;12.828;2022-07-05T20:27:36;98153.63;;;19.71;100.00
30081;BME280;16902;50.816;12.828;2022-07-05T20:32:38;98161.44;;;19.66;100.00
30081;BME280;16902;50.816;12.828;2022-07-05T20:37:40;98163.16;;;19.60;100.00
30081;BME280;16902;50.816;12.828;2022-07-05T20:42:42;98164.16;;;19.59;100.00
30081;BME280;16902;50.816;12.828;2022-07-05T20:47:43;98165.19;;;19.58;100.00
30081;BME280;16902;50.816;12.828;2022-07-05T20:52:45;98165.16;;;19.46;100.00
30081;BME280;16902;50.816;12.828;2022-07-05T20:57:48;98170.31;;;19.41;100.00
30081;BME280;16902;50.816;12.828;2022-07-05T21:02:50;98171.34;;;19.40;100.00
30081;BME280;16902;50.816;12.828;2022-07-05T21:07:51;98173.63;;;19.37;100.00
30081;BME280;16902;50.816;12.828;2022-07-05T21:12:53;98174.53;;;19.31;100.00
30081;BME280;16902;50.816;12.828;2022-07-05T21:17:55;98180.50;;;19.26;100.00
30081;BME280;16902;50.816;12.828;2022-07-05T21:23:05;98198.38;;;19.24;100.00
30081;BME280;16902;50.816;12.828;2022-07-05T21:28:06;98214.44;;;19.22;100.00
30081;BME280;16902;50.816;12.828;2022-07-05T21:33:08;98240.69;;;19.36;100.00
30081;BME280;16902;50.816;12.828;2022-07-05T21:38:10;98260.09;;;18.74;100.00
30081;BME280;16902;50.816;12.828;2022-07-05T21:43:12;98289.38;;;17.21;100.00
30081;BME280;16902;50.816;12.828;2022-07-05T21:48:14;98283.47;;;15.95;100.00
30081;BME280;16902;50.816;12.828;2022-07-05T21:53:16;98307.53;;;15.37;100.00
30081;BME280;16902;50.816;12.828;2022-07-05T21:58:18;98287.25;;;15.05;100.00
30081;BME280;16902;50.816;12.828;2022-07-05T22:03:21;98259.09;;;14.79;100.00
30081;BME280;16902;50.816;12.828;2022-07-05T22:08:52;98273.28;;;14.56;100.00
30081;BME280;16902;50.816;12.828;2022-07-05T22:13:53;98257.41;;;14.36;100.00
30081;BME280;16902;50.816;12.828;2022-07-05T22:18:55;98246.16;;;14.14;100.00
30081;BME280;16902;50.816;12.828;2022-07-05T22:23:57;98265.03;;;14.03;100.00
30081;BME280;16902;50.816;12.828;2022-07-05T22:28:59;98287.28;;;13.93;100.00
30081;BME280;16902;50.816;12.828;2022-07-05T22:34:02;98303.28;;;14.04;100.00
30081;BME280;16902;50.816;12.828;2022-07-05T22:39:04;98335.50;;;14.05;100.00
30081;BME280;16902;50.816;12.828;2022-07-05T22:44:06;98321.06;;;14.09;100.00
30081;BME280;16902;50.816;12.828;2022-07-05T22:49:08;98334.28;;;14.22;100.00
30081;BME280;16902;50.816;12.828;2022-07-05T22:54:10;98312.69;;;14.20;100.00
30081;BME280;16902;50.816;12.828;2022-07-05T22:59:12;98288.31;;;14.20;100.00
30081;BME280;16902;50.816;12.828;2022-07-05T23:04:14;98279.44;;;14.21;100.00
30081;BME280;16902;50.816;12.828;2022-07-05T23:09:16;98285.56;;;14.28;100.00
30081;BME280;16902;50.816;12.828;2022-07-05T23:14:18;98282.16;;;14.34;100.00
30081;BME280;16902;50.816;12.828;2022-07-05T23:19:19;98278.59;;;14.13;100.00
30081;BME280;16902;50.816;12.828;2022-07-05T23:24:21;98291.19;;;14.03;100.00
30081;BME280;16902;50.816;12.828;2022-07-05T23:29:42;98285.97;;;14.03;100.00
30081;BME280;16902;50.816;12.828;2022-07-05T23:34:44;98291.81;;;14.05;100.00
30081;BME280;16902;50.816;12.828;2022-07-05T23:39:46;98291.19;;;14.03;100.00
30081;BME280;16902;50.816;12.828;2022-07-05T23:44:48;98293.56;;;13.98;100.00
30081;BME280;16902;50.816;12.828;2022-07-05T23:50:01;98272.75;;;13.90;100.00
30081;BME280;16902;50.816;12.828;2022-07-05T23:55:04;98275.44;;;13.75;100.00
